Time;durP1;ratioP1;P1;durP2;ratioP2;P2;SDS_P1;SDS_P2;PMS_P1;PMS_P2;Temp;Humidity;BMP_temperature;BMP_pressure;BME280_temperature;BME280_humidity;BME280_pressure;Samples;Min_cycle;Max_cycle;Signal;HPM_P1;HPM_P2
2023/08/24 00:02:29;;;;;;;0.60;0.60;;;;;;;30.20;51.61;100767.53;4929110;28;70071;-38
2023/08/24 00:05:00;;;;;;;1.38;1.27;;;;;;;30.25;51.95;100785.84;4926284;28;65288;-38
2023/08/24 00:07:30;;;;;;;1.05;0.95;;;;;;;30.30;52.11;100796.00;4939217;28;70647;-37
2023/08/24 00:10:03;;;;;;;1.25;1.15;;;;;;;30.22;52.18;100778.16;4924154;28;65023;-39
2023/08/24 00:12:35;;;;;;;1.02;0.85;;;;;;;30.36;52.13;100797.84;4931437;28;69525;-39
2023/08/24 00:15:08;;;;;;;1.23;0.80;;;;;;;30.41;51.73;100806.13;4910943;28;66577;-38
2023/08/24 00:17:39;;;;;;;3.03;0.65;;;;;;;30.38;52.46;100801.16;4918732;28;70287;-39
2023/08/24 00:20:10;;;;;;;2.47;0.60;;;;;;;30.39;52.25;100802.81;4932146;28;65291;-40
2023/08/24 00:22:40;;;;;;;1.42;1.20;;;;;;;30.44;54.36;100808.41;4917188;28;70137;-41
2023/08/24 00:25:10;;;;;;;3.95;2.33;;;;;;;30.47;56.55;100818.78;4915357;28;65941;-40
2023/08/24 00:27:40;;;;;;;3.38;2.63;;;;;;;30.53;56.58;100820.63;4925551;28;68607;-42
2023/08/24 00:30:11;;;;;;;8.15;3.95;;;;;;;30.64;62.84;100822.59;4923966;28;67559;-41
2023/08/24 00:32:41;;;;;;;10.10;6.55;;;;;;;30.72;66.66;100830.47;4917178;28;69625;-35
2023/08/24 00:35:13;;;;;;;6.85;6.15;;;;;;;30.68;68.33;100823.84;4912136;28;67004;-41
2023/08/24 00:37:43;;;;;;;7.20;6.60;;;;;;;30.80;68.01;100831.28;4916002;28;69822;-36
2023/08/24 00:40:13;;;;;;;7.43;6.47;;;;;;;30.82;69.46;100829.19;4907774;28;65507;-37
2023/08/24 00:42:46;;;;;;;8.20;7.30;;;;;;;30.81;69.71;100832.94;4925089;28;69390;-38
2023/08/24 00:45:16;;;;;;;7.65;6.53;;;;;;;30.84;70.20;100832.47;4915639;28;66307;-38
2023/08/24 00:47:48;;;;;;;7.25;5.97;;;;;;;30.84;71.14;100835.19;4924381;28;70061;-35
2023/08/24 00:50:19;;;;;;;5.68;5.18;;;;;;;30.85;70.71;100845.00;4913321;28;66717;-36
2023/08/24 00:52:50;;;;;;;6.15;5.68;;;;;;;30.85;71.24;100845.81;4898369;28;71364;-37
2023/08/24 00:55:21;;;;;;;5.50;5.05;;;;;;;30.90;71.93;100848.69;4899694;28;65651;-36
2023/08/24 00:57:52;;;;;;;5.95;5.18;;;;;;;30.82;71.07;100840.84;4924996;28;69119;-36
2023/08/24 01:00:23;;;;;;;6.50;4.95;;;;;;;30.88;67.64;100849.97;4919632;28;67179;-36
2023/08/24 01:02:53;;;;;;;10.93;4.07;;;;;;;30.94;66.85;100851.78;4919910;28;69694;-37
2023/08/24 01:05:23;;;;;;;5.03;3.60;;;;;;;30.95;66.65;100845.31;4917524;28;66446;-37
2023/08/24 01:07:53;;;;;;;3.20;2.95;;;;;;;31.01;66.29;100854.41;4933384;28;70463;-35
2023/08/24 01:10:30;;;;;;;1.98;1.88;;;;;;;30.60;65.55;100785.38;4905127;28;65343;-36
2023/08/24 01:13:08;;;;;;;2.42;2.22;;;;;;;31.03;65.96;100864.00;4920132;28;70962;-36
2023/08/24 01:15:46;;;;;;;2.22;2.03;;;;;;;31.04;65.91;100854.00;4906720;28;65811;-34
2023/08/24 01:18:20;;;;;;;1.83;1.65;;;;;;;31.11;65.48;100869.13;4923961;28;69819;-39
2023/08/24 01:20:51;;;;;;;2.10;1.80;;;;;;;31.11;64.97;100855.59;4920093;28;65266;-36
2023/08/24 01:23:33;;;;;;;1.85;1.67;;;;;;;31.12;65.16;100862.69;4922580;28;70727;-36
2023/08/24 01:26:21;;;;;;;2.03;1.88;;;;;;;31.02;65.83;100847.97;4911090;28;65547;-36
2023/08/24 01:28:52;;;;;;;2.65;1.95;;;;;;;31.19;64.49;100859.06;4915104;28;69562;-37
2023/08/24 01:31:25;;;;;;;1.42;1.33;;;;;;;30.86;64.23;100798.72;4882511;28;66270;-36
2023/08/24 01:33:56;;;;;;;1.58;1.42;;;;;;;30.93;63.92;100813.03;4924124;28;69532;-36
2023/08/24 01:36:26;;;;;;;1.23;1.10;;;;;;;31.24;64.27;100864.66;4930959;28;65911;-35
2023/08/24 01:39:45;;;;;;;1.38;1.27;;;;;;;31.20;64.44;100875.09;4892579;28;69448;-41
2023/08/24 01:42:22;;;;;;;1.20;1.02;;;;;;;30.75;63.37;100779.63;4905276;28;66279;-36
2023/08/24 01:44:58;;;;;;;1.90;0.90;;;;;;;30.89;63.82;100808.28;4927477;28;69935;-36
2023/08/24 01:47:29;;;;;;;1.17;0.70;;;;;;;31.33;63.19;100864.13;4911302;28;66381;-39
2023/08/24 01:50:02;;;;;;;0.68;0.60;;;;;;;31.39;63.39;100878.69;4916280;28;69709;-36
2023/08/24 01:52:34;;;;;;;0.85;0.80;;;;;;;31.36;63.68;100876.44;4911868;28;64349;-36
2023/08/24 01:55:04;;;;;;;0.65;0.60;;;;;;;31.44;63.26;100880.75;4894107;28;69527;-35
2023/08/24 01:57:34;;;;;;;1.35;0.77;;;;;;;31.33;63.31;100857.88;4912329;28;65818;-36
2023/08/24 02:00:06;;;;;;;0.80;0.73;;;;;;;31.47;62.85;100886.53;4911942;28;70069;-35
2023/08/24 02:02:42;;;;;;;1.00;0.70;;;;;;;31.46;62.94;100868.63;4914068;28;66392;-36
2023/08/24 02:05:13;;;;;;;0.80;0.60;;;;;;;31.54;62.88;100876.47;4909526;28;69945;-35
2023/08/24 02:07:43;;;;;;;0.90;0.70;;;;;;;31.55;62.91;100872.69;4915039;28;66631;-35
2023/08/24 02:10:13;;;;;;;1.10;0.60;;;;;;;31.58;62.52;100874.94;4913833;28;70367;-35
2023/08/24 02:12:43;;;;;;;0.65;0.50;;;;;;;31.54;62.88;100873.75;4911080;28;66339;-36
2023/08/24 02:15:13;;;;;;;0.80;0.70;;;;;;;31.64;62.52;100885.94;4895993;28;70517;-35
2023/08/24 02:17:44;;;;;;;0.90;0.60;;;;;;;31.66;62.75;100881.16;4912176;28;66781;-35
2023/08/24 02:20:15;;;;;;;0.88;0.52;;;;;;;31.64;62.70;100875.94;4913931;28;70131;-35
2023/08/24 02:22:45;;;;;;;0.95;0.80;;;;;;;31.59;62.55;100867.63;4903701;28;65725;-35
2023/08/24 02:25:15;;;;;;;1.13;0.75;;;;;;;31.65;62.25;100871.34;4901691;28;70235;-36
2023/08/24 02:27:45;;;;;;;0.82;0.60;;;;;;;31.74;62.49;100886.28;4914254;28;66624;-35
2023/08/24 02:30:16;;;;;;;1.00;0.60;;;;;;;31.78;62.31;100892.88;4912302;28;70609;-36
2023/08/24 02:32:47;;;;;;;0.70;0.57;;;;;;;31.74;62.32;100883.56;4895012;28;66811;-35
2023/08/24 02:35:20;;;;;;;0.70;0.70;;;;;;;31.84;62.26;100897.41;4910138;28;70413;-35
2023/08/24 02:37:51;;;;;;;0.75;0.65;;;;;;;31.85;62.23;100904.50;4916761;28;66546;-36
2023/08/24 02:40:21;;;;;;;0.63;0.55;;;;;;;31.88;61.95;100893.19;4920507;28;70974;-35
2023/08/24 02:42:52;;;;;;;0.80;0.65;;;;;;;31.90;62.19;100896.50;4933948;28;66809;-36
2023/08/24 02:45:21;;;;;;;0.65;0.55;;;;;;;31.86;61.83;100889.88;4920840;28;70384;-36
2023/08/24 02:47:52;;;;;;;0.68;0.60;;;;;;;31.94;61.88;100892.31;4919023;28;65795;-36
2023/08/24 02:50:22;;;;;;;1.17;0.80;;;;;;;31.98;61.77;100888.09;4914511;28;69936;-38
2023/08/24 02:52:52;;;;;;;1.40;0.57;;;;;;;31.76;61.64;100849.72;4914128;28;66045;-36
2023/08/24 02:55:22;;;;;;;1.55;0.75;;;;;;;32.02;61.40;100894.72;4910943;28;70256;-38
2023/08/24 02:57:52;;;;;;;0.73;0.50;;;;;;;32.04;61.42;100884.47;4927332;28;66111;-38
2023/08/24 03:00:22;;;;;;;0.75;0.40;;;;;;;32.04;61.26;100892.59;4923672;28;69298;-36
2023/08/24 03:02:52;;;;;;;0.75;0.52;;;;;;;32.10;61.25;100895.47;4922221;28;66798;-38
2023/08/24 03:05:23;;;;;;;1.42;0.70;;;;;;;32.01;60.99;100871.38;4913292;28;70565;-36
2023/08/24 03:07:54;;;;;;;1.77;0.43;;;;;;;32.10;61.33;100881.91;4898528;28;66553;-37
2023/08/24 03:10:24;;;;;;;0.82;0.50;;;;;;;32.07;61.02;100869.63;4895542;28;70923;-37
2023/08/24 03:12:54;;;;;;;0.60;0.50;;;;;;;32.12;61.03;100864.31;4910854;28;66381;-37
2023/08/24 03:15:24;;;;;;;1.02;0.60;;;;;;;32.20;60.90;100869.41;4879137;28;70254;-36
2023/08/24 03:17:54;;;;;;;0.80;0.47;;;;;;;32.23;60.85;100868.13;4911430;28;67712;-38
2023/08/24 03:20:24;;;;;;;0.65;0.55;;;;;;;32.11;60.80;100842.84;4919890;28;69857;-38
2023/08/24 03:22:55;;;;;;;0.40;0.40;;;;;;;32.27;60.64;100866.63;4901890;28;65852;-37
2023/08/24 03:25:26;;;;;;;1.92;0.50;;;;;;;32.29;60.74;100859.09;4919765;28;69663;-39
2023/08/24 03:27:56;;;;;;;0.68;0.50;;;;;;;32.29;60.45;100853.66;4905342;28;65884;-36
2023/08/24 03:30:26;;;;;;;1.00;0.50;;;;;;;32.33;60.04;100852.13;4905512;28;69940;-37
2023/08/24 03:32:58;;;;;;;0.70;0.50;;;;;;;32.32;60.45;100850.47;4916589;28;66508;-38
2023/08/24 03:35:30;;;;;;;0.50;0.43;;;;;;;32.38;60.18;100844.13;4906102;28;70651;-38
2023/08/24 03:38:01;;;;;;;1.20;0.60;;;;;;;32.28;59.89;100835.72;4919003;28;66167;-37
2023/08/24 03:40:30;;;;;;;2.15;0.50;;;;;;;32.40;60.06;100857.44;4920104;28;70492;-37
2023/08/24 03:43:02;;;;;;;0.52;0.50;;;;;;;32.40;59.96;100847.44;4912773;28;66267;-38
2023/08/24 03:45:32;;;;;;;;;;;;;;;32.19;60.66;100851.50;4903487;28;70121;-35
2023/08/24 03:48:02;;;;;;;0.90;0.50;;;;;;;32.37;60.00;100836.19;4915052;28;66866;-36
2023/08/24 03:50:33;;;;;;;1.05;0.50;;;;;;;32.46;60.04;100834.88;4905063;28;70237;-36
2023/08/24 03:53:03;;;;;;;3.47;0.70;;;;;;;32.47;59.92;100831.91;4895591;28;66019;-35
2023/08/24 03:55:34;;;;;;;0.52;0.40;;;;;;;32.46;60.07;100824.81;4881766;28;70602;-36
2023/08/24 03:58:05;;;;;;;0.50;0.50;;;;;;;32.49;59.99;100824.34;4890748;28;65464;-38
2023/08/24 04:00:37;;;;;;;0.95;0.50;;;;;;;32.51;60.00;100817.84;4911571;28;70257;-40
2023/08/24 04:03:08;;;;;;;0.57;0.55;;;;;;;32.54;59.85;100820.09;4929221;28;66381;-37
2023/08/24 04:05:39;;;;;;;0.77;0.40;;;;;;;32.55;59.96;100808.19;4905077;28;71372;-36
2023/08/24 04:08:09;;;;;;;0.60;0.50;;;;;;;32.57;59.94;100812.34;4924149;28;65995;-35
2023/08/24 04:10:39;;;;;;;0.60;0.40;;;;;;;32.55;59.26;100794.63;4922761;28;70708;-36
2023/08/24 04:13:09;;;;;;;0.50;0.40;;;;;;;32.62;59.49;100806.19;4913362;28;66111;-36
2023/08/24 04:15:42;;;;;;;0.40;0.40;;;;;;;32.55;59.56;100794.63;4890473;28;43290;-38
2023/08/24 04:18:12;;;;;;;1.05;0.40;;;;;;;32.66;59.24;100801.94;4896591;28;66333;-37
2023/08/24 04:20:42;;;;;;;1.15;0.45;;;;;;;32.69;59.34;100806.91;4901115;28;70329;-36
2023/08/24 04:23:14;;;;;;;0.98;0.45;;;;;;;32.71;59.27;100794.75;4917909;28;65798;-38
2023/08/24 04:25:43;;;;;;;;;;;;;;;32.47;59.72;100796.59;4916377;28;70226;-38
2023/08/24 04:28:13;;;;;;;0.77;0.50;;;;;;;32.73;59.25;100791.78;4913504;28;66775;-37
2023/08/24 04:30:55;;;;;;;0.73;0.40;;;;;;;32.29;59.37;100720.66;4917279;28;70497;-36
2023/08/24 04:33:27;;;;;;;0.95;0.40;;;;;;;32.64;59.18;100760.63;4914247;28;65286;-36
2023/08/24 04:35:59;;;;;;;0.65;0.47;;;;;;;32.78;59.34;100772.91;4918666;28;70378;-36
2023/08/24 04:38:29;;;;;;;;;;;;;;;32.52;59.99;100782.34;4919485;28;66711;-37
2023/08/24 04:40:59;;;;;;;0.57;0.40;;;;;;;32.74;59.31;100762.75;4910975;28;70020;-36
2023/08/24 04:43:29;;;;;;;0.63;0.40;;;;;;;32.78;59.22;100762.03;4913008;28;66272;-37
2023/08/24 04:45:59;;;;;;;0.75;0.57;;;;;;;32.82;59.27;100752.38;4920180;28;69897;-36
2023/08/24 04:48:34;;;;;;;1.23;0.50;;;;;;;32.86;59.00;100764.41;4909541;28;66215;-37
2023/08/24 04:51:04;;;;;;;1.02;0.50;;;;;;;32.86;58.93;100753.53;4910549;28;70640;-36
2023/08/24 04:53:34;;;;;;;0.70;0.50;;;;;;;32.92;58.70;100735.44;4903821;28;66113;-36
2023/08/24 04:56:04;;;;;;;0.80;0.50;;;;;;;32.93;58.94;100728.94;4907508;28;69375;-37
2023/08/24 04:58:34;;;;;;;0.47;0.45;;;;;;;32.93;58.67;100721.63;4913116;28;65774;-37
2023/08/24 05:01:04;;;;;;;0.50;0.32;;;;;;;32.96;58.27;100724.91;4918525;28;70113;-37
2023/08/24 05:03:35;;;;;;;0.80;0.45;;;;;;;32.96;58.50;100711.34;4919904;28;66519;-35
2023/08/24 05:06:05;;;;;;;1.27;0.40;;;;;;;33.02;58.37;100726.75;4914612;28;70151;-37
2023/08/24 05:08:35;;;;;;;1.35;0.40;;;;;;;33.02;58.46;100702.28;4905262;28;66292;-36
2023/08/24 05:11:19;;;;;;;0.75;0.52;;;;;;;32.97;58.27;100699.41;4905626;28;70318;-36
2023/08/24 05:13:50;;;;;;;1.35;0.50;;;;;;;33.04;58.21;100700.13;4907377;28;66344;-36
2023/08/24 05:16:20;;;;;;;0.93;0.50;;;;;;;33.00;58.85;100683.50;4920007;28;70159;-36
2023/08/24 05:18:51;;;;;;;0.50;0.40;;;;;;;32.97;58.59;100680.41;4896851;28;66432;-36
2023/08/24 05:21:21;;;;;;;0.60;0.43;;;;;;;33.08;58.69;100685.03;4924424;28;70135;-37
2023/08/24 05:23:51;;;;;;;0.93;0.50;;;;;;;33.09;58.47;100681.22;4912758;28;65358;-36
2023/08/24 05:26:24;;;;;;;1.17;0.60;;;;;;;33.11;58.34;100677.19;4898573;28;69450;-36
2023/08/24 05:28:54;;;;;;;1.45;0.60;;;;;;;33.12;58.22;100667.16;4917137;28;65884;-36
2023/08/24 05:31:24;;;;;;;1.70;0.50;;;;;;;33.09;57.90;100671.16;4908861;28;70050;-35
2023/08/24 05:33:55;;;;;;;0.80;0.53;;;;;;;33.17;57.90;100669.16;4908562;28;65326;-36
2023/08/24 05:36:25;;;;;;;0.68;0.57;;;;;;;33.15;58.01;100656.66;4907944;28;70534;-41
2023/08/24 05:38:56;;;;;;;0.93;0.50;;;;;;;33.18;57.76;100658.03;4914581;28;66421;-36
2023/08/24 05:41:29;;;;;;;1.10;0.68;;;;;;;33.14;58.03;100640.56;4917612;28;69955;-37
2023/08/24 05:43:59;;;;;;;1.20;0.50;;;;;;;33.20;57.60;100639.59;4913740;28;66046;-37
2023/08/24 05:46:29;;;;;;;0.57;0.40;;;;;;;33.26;57.87;100635.09;4912272;28;69170;-37
2023/08/24 05:48:59;;;;;;;0.50;0.45;;;;;;;33.21;58.07;100635.81;4914817;28;65832;-36
2023/08/24 05:51:29;;;;;;;0.55;0.50;;;;;;;33.28;58.16;100635.66;4914469;28;69923;-36
2023/08/24 05:54:00;;;;;;;0.98;0.50;;;;;;;33.04;58.05;100580.56;4910086;28;66346;-36
2023/08/24 05:56:31;;;;;;;1.30;0.50;;;;;;;33.28;58.07;100603.88;4913488;28;69334;-37
2023/08/24 05:59:01;;;;;;;0.70;0.50;;;;;;;33.33;58.03;100605.88;4918013;28;65643;-38
2023/08/24 06:01:34;;;;;;;0.80;0.60;;;;;;;33.33;57.88;100598.53;4914690;28;70188;-38
2023/08/24 06:04:11;;;;;;;0.60;0.52;;;;;;;33.34;57.85;100581.13;4899874;28;65876;-37
2023/08/24 06:06:41;;;;;;;0.98;0.68;;;;;;;33.36;57.92;100568.13;4920038;28;69950;-35
2023/08/24 06:09:11;;;;;;;0.63;0.57;;;;;;;33.38;57.76;100574.16;4922290;28;66728;-37
2023/08/24 06:11:41;;;;;;;1.15;0.70;;;;;;;33.38;57.58;100568.72;4930001;28;69566;-37
2023/08/24 06:14:11;;;;;;;0.88;0.50;;;;;;;33.38;57.47;100566.00;4917104;28;65115;-38
2023/08/24 06:16:41;;;;;;;0.77;0.73;;;;;;;33.46;57.53;100556.63;4933499;28;70196;-35
2023/08/24 06:19:11;;;;;;;0.55;0.43;;;;;;;33.54;57.26;100560.84;4920942;28;65134;-36
2023/08/24 06:21:41;;;;;;;0.68;0.50;;;;;;;33.55;57.50;100559.78;4921133;28;69927;-41
2023/08/24 06:24:11;;;;;;;0.80;0.68;;;;;;;33.47;57.56;100524.81;4910110;28;66539;-36
2023/08/24 06:26:41;;;;;;;1.40;0.60;;;;;;;33.59;56.92;100545.44;4921453;28;69384;-36
2023/08/24 06:29:11;;;;;;;0.50;0.40;;;;;;;33.63;57.29;100540.34;4913368;28;67364;-36
2023/08/24 06:31:41;;;;;;;0.80;0.70;;;;;;;33.63;57.08;100524.03;4923419;28;70087;-36
2023/08/24 06:34:12;;;;;;;1.10;0.70;;;;;;;33.67;57.37;100533.31;4908556;28;66496;-36
2023/08/24 06:36:42;;;;;;;1.17;0.88;;;;;;;33.64;57.10;100520.22;4913553;28;70151;-36
2023/08/24 06:39:12;;;;;;;1.17;0.80;;;;;;;33.71;57.17;100515.47;4922124;28;66750;-37
2023/08/24 06:41:42;;;;;;;1.10;0.82;;;;;;;33.74;57.00;100517.69;4914756;28;69538;-35
2023/08/24 06:44:12;;;;;;;0.80;0.73;;;;;;;33.78;57.20;100518.00;4917145;28;65804;-37
2023/08/24 06:46:42;;;;;;;1.55;0.80;;;;;;;33.80;56.86;100513.94;4917179;28;70206;-34
2023/08/24 06:49:13;;;;;;;1.30;0.70;;;;;;;33.84;56.79;100508.00;4920038;28;65509;-36
2023/08/24 06:51:43;;;;;;;1.20;0.90;;;;;;;33.90;56.38;100512.44;4914072;28;70322;-34
2023/08/24 06:54:14;;;;;;;1.10;0.80;;;;;;;33.90;56.76;100520.59;4920276;28;65151;-35
2023/08/24 06:56:44;;;;;;;;;;;;;;;33.70;56.59;100502.09;4915235;28;69949;-42
2023/08/24 06:59:15;;;;;;;1.52;0.85;;;;;;;33.91;56.90;100489.63;4901031;28;65576;-36
2023/08/24 07:01:47;;;;;;;0.95;0.70;;;;;;;34.01;56.41;100503.34;4924712;28;70803;-36
2023/08/24 07:04:17;;;;;;;1.02;0.57;;;;;;;34.02;55.96;100484.06;4920194;28;65614;-36
2023/08/24 07:06:48;;;;;;;0.52;0.52;;;;;;;34.06;56.07;100487.13;4924593;28;69201;-36
2023/08/24 07:09:19;;;;;;;0.85;0.60;;;;;;;34.08;56.10;100476.81;4919775;28;66024;-36
2023/08/24 07:11:49;;;;;;;1.00;0.70;;;;;;;34.14;56.09;100483.97;4917566;28;70941;-37
2023/08/24 07:14:19;;;;;;;1.10;0.90;;;;;;;34.17;56.31;100477.22;4923130;28;65770;-36
2023/08/24 07:16:49;;;;;;;0.95;0.80;;;;;;;34.23;55.68;100485.19;4922633;28;69502;-37
2023/08/24 07:19:20;;;;;;;1.33;0.85;;;;;;;34.26;56.07;100478.41;4922995;28;66648;-36
2023/08/24 07:21:50;;;;;;;1.27;1.17;;;;;;;34.28;55.89;100480.88;4933817;28;69683;-37
2023/08/24 07:24:20;;;;;;;1.08;0.98;;;;;;;34.35;55.73;100476.06;4910835;28;65503;-36
2023/08/24 07:27:03;;;;;;;1.25;0.82;;;;;;;34.38;55.99;100481.84;4929022;28;70015;-36
2023/08/24 07:29:33;;;;;;;1.02;0.90;;;;;;;34.45;55.73;100478.91;4901941;28;65301;-35
2023/08/24 07:32:03;;;;;;;1.17;0.88;;;;;;;34.44;55.17;100467.19;4928809;28;69981;-36
2023/08/24 07:34:34;;;;;;;1.20;0.80;;;;;;;34.53;55.61;100470.28;4922258;28;66686;-35
2023/08/24 07:37:04;;;;;;;2.58;0.93;;;;;;;34.53;54.82;100462.13;4932854;28;69876;-35
2023/08/24 07:39:34;;;;;;;3.53;0.95;;;;;;;34.64;54.85;100466.63;4920576;28;65416;-36
2023/08/24 07:42:04;;;;;;;1.38;1.25;;;;;;;34.68;54.56;100466.94;4913028;28;70376;-37
2023/08/24 07:44:35;;;;;;;1.23;0.93;;;;;;;34.73;55.17;100458.81;4890715;28;66381;-37
2023/08/24 07:47:06;;;;;;;1.23;0.93;;;;;;;34.75;54.70;100464.03;4914591;28;69890;-36
2023/08/24 07:49:36;;;;;;;1.08;0.82;;;;;;;34.80;54.36;100450.44;4905847;28;66735;-36
2023/08/24 07:52:06;;;;;;;0.98;0.90;;;;;;;34.85;54.59;100462.22;4905498;28;69217;-37
2023/08/24 07:54:36;;;;;;;1.02;0.70;;;;;;;34.87;54.37;100429.25;4915197;28;66062;-36
2023/08/24 07:57:07;;;;;;;1.13;0.77;;;;;;;34.93;54.52;100439.13;4903610;28;69321;-36
2023/08/24 07:59:37;;;;;;;3.47;0.93;;;;;;;34.93;54.10;100444.56;4909009;28;66571;-36
2023/08/24 08:02:07;;;;;;;1.08;0.90;;;;;;;34.97;54.09;100440.25;4891350;28;70021;-37
2023/08/24 08:04:37;;;;;;;1.33;1.00;;;;;;;34.99;53.66;100431.81;4912813;28;66907;-35
2023/08/24 08:07:07;;;;;;;1.30;1.20;;;;;;;35.02;53.95;100432.13;4910146;28;69473;-36
2023/08/24 08:09:37;;;;;;;2.25;1.10;;;;;;;35.05;54.04;100431.63;4912664;28;66213;-37
2023/08/24 08:12:08;;;;;;;1.50;1.25;;;;;;;35.01;53.92;100414.13;4910392;28;70627;-37
2023/08/24 08:14:38;;;;;;;2.25;1.10;;;;;;;35.11;53.71;100430.59;4904830;28;66001;-35
2023/08/24 08:17:08;;;;;;;1.13;1.02;;;;;;;35.10;53.29;100414.50;4911420;28;69703;-37
2023/08/24 08:19:38;;;;;;;0.90;0.80;;;;;;;35.12;53.66;100415.88;4907206;28;67200;-37
2023/08/24 08:22:08;;;;;;;1.40;1.20;;;;;;;35.12;53.49;100415.06;4913581;28;70319;-34
2023/08/24 08:24:38;;;;;;;1.65;0.80;;;;;;;35.11;53.05;100411.50;4912677;28;65390;-35
2023/08/24 08:27:10;;;;;;;0.80;0.60;;;;;;;35.13;53.54;100417.53;4912876;28;70279;-35
2023/08/24 08:29:40;;;;;;;0.80;0.80;;;;;;;35.14;53.79;100423.81;4889117;28;65025;-35
2023/08/24 08:32:12;;;;;;;0.65;0.57;;;;;;;35.13;53.77;100419.41;4905211;28;70037;-37
2023/08/24 08:34:42;;;;;;;1.40;1.10;;;;;;;35.16;53.49;100423.53;4907269;28;66494;-36
2023/08/24 08:37:12;;;;;;;1.17;1.08;;;;;;;35.13;53.30;100416.69;4905235;28;69444;-36
2023/08/24 08:39:42;;;;;;;1.45;1.30;;;;;;;35.07;52.96;100413.09;4904924;28;66347;-36
2023/08/24 08:42:14;;;;;;;1.35;1.25;;;;;;;35.05;53.66;100398.91;4913526;28;69243;-38
2023/08/24 08:44:46;;;;;;;;;;;;;;;34.93;53.54;100401.78;4915650;28;65426;-36
2023/08/24 08:47:18;;;;;;;1.17;1.08;;;;;;;35.12;54.12;100404.16;4913022;28;69374;-36
2023/08/24 08:49:53;;;;;;;2.28;1.13;;;;;;;35.12;53.60;100399.53;4911614;28;65651;-36
2023/08/24 08:52:25;;;;;;;1.40;1.30;;;;;;;35.08;53.35;100395.69;4915472;28;70324;-35
2023/08/24 08:54:55;;;;;;;1.23;1.08;;;;;;;35.07;53.83;100396.75;4914775;28;66355;-35
2023/08/24 08:57:25;;;;;;;1.08;0.98;;;;;;;35.06;53.42;100403.28;4914102;28;70024;-37
2023/08/24 08:59:56;;;;;;;1.17;0.93;;;;;;;34.97;53.44;100377.56;4916107;28;66789;-35
2023/08/24 09:02:26;;;;;;;2.25;1.20;;;;;;;35.09;53.41;100405.50;4915919;28;69315;-36
2023/08/24 09:04:57;;;;;;;1.10;1.00;;;;;;;35.09;53.80;100405.50;4913105;28;66304;-35
2023/08/24 09:07:28;;;;;;;0.73;0.73;;;;;;;35.06;53.24;100395.13;4915283;28;69600;-35
2023/08/24 09:09:58;;;;;;;1.77;1.03;;;;;;;35.05;53.66;100398.91;4912567;28;66434;-38
2023/08/24 09:12:33;;;;;;;1.17;0.90;;;;;;;34.65;53.93;100337.50;4917396;28;69164;-36
2023/08/24 09:15:06;;;;;;;1.40;1.30;;;;;;;35.09;53.34;100394.59;4915279;28;66561;-36
2023/08/24 09:17:43;;;;;;;1.50;1.40;;;;;;;35.07;53.70;100404.09;4918677;28;70455;-36
2023/08/24 09:20:15;;;;;;;1.35;1.25;;;;;;;35.08;53.74;100395.69;4916485;28;65977;-36
2023/08/24 09:22:45;;;;;;;1.88;1.45;;;;;;;35.09;53.46;100405.50;4896288;28;70113;-36
2023/08/24 09:25:15;;;;;;;1.70;1.60;;;;;;;35.10;53.56;100401.72;4913720;28;65753;-36
2023/08/24 09:27:45;;;;;;;1.88;1.73;;;;;;;35.12;53.43;100393.25;4921020;28;69958;-37
2023/08/24 09:30:16;;;;;;;2.33;2.13;;;;;;;35.13;53.26;100397.59;4918001;28;66302;-36
2023/08/24 09:32:46;;;;;;;2.22;1.70;;;;;;;35.06;53.30;100383.41;4885437;28;70377;-37
2023/08/24 09:35:20;;;;;;;1.60;1.40;;;;;;;35.08;53.52;100395.69;4913026;28;65523;-34
2023/08/24 09:37:51;;;;;;;1.65;1.55;;;;;;;35.12;53.48;100402.25;4890440;28;70051;-36
2023/08/24 09:40:28;;;;;;;2.03;1.80;;;;;;;35.10;53.29;100403.59;4917431;28;66373;-36
2023/08/24 09:43:03;;;;;;;1.60;1.50;;;;;;;35.11;53.11;100406.06;4919324;28;70691;-36
2023/08/24 09:45:34;;;;;;;1.60;1.33;;;;;;;35.07;53.18;100409.56;4916994;28;65782;-36
2023/08/24 09:48:06;;;;;;;1.38;1.20;;;;;;;35.08;53.86;100414.75;4913904;28;69978;-36
2023/08/24 09:50:37;;;;;;;1.42;1.23;;;;;;;35.07;53.98;100423.19;4914161;28;67727;-37
2023/08/24 09:53:11;;;;;;;1.75;1.50;;;;;;;35.07;53.98;100424.00;4914659;28;70711;-37
2023/08/24 09:55:44;;;;;;;1.83;1.38;;;;;;;35.04;53.85;100423.69;4913500;28;65233;-35
2023/08/24 09:58:16;;;;;;;1.60;1.50;;;;;;;34.99;53.53;100420.91;4906983;28;69761;-36
2023/08/24 10:00:48;;;;;;;1.42;1.33;;;;;;;35.04;53.76;100429.13;4893034;28;66457;-37
2023/08/24 10:03:40;;;;;;;1.30;1.20;;;;;;;34.25;54.39;100318.88;4918553;28;69748;-36
2023/08/24 10:06:12;;;;;;;1.50;1.27;;;;;;;34.99;54.30;100432.63;4907995;28;65415;-36
2023/08/24 10:08:48;;;;;;;2.00;1.80;;;;;;;34.98;54.08;100431.00;4907928;28;70770;-36
2023/08/24 10:11:26;;;;;;;2.28;1.10;;;;;;;34.89;54.10;100427.91;4915824;28;66930;-35
2023/08/24 10:14:23;;;;;;;1.48;1.38;;;;;;;34.71;53.57;100409.22;4915033;28;69004;-36
2023/08/24 10:16:55;;;;;;;2.42;1.08;;;;;;;34.93;54.68;100452.75;4894199;28;65586;-36
2023/08/24 10:19:26;;;;;;;1.52;1.42;;;;;;;34.94;53.95;100457.13;4916582;28;69266;-38
2023/08/24 10:22:00;;;;;;;1.50;1.40;;;;;;;34.94;54.74;100454.41;4918849;28;66433;-36
2023/08/24 10:24:32;;;;;;;1.30;1.17;;;;;;;34.95;53.86;100471.56;4913872;28;70286;-35
2023/08/24 10:27:04;;;;;;;1.65;1.05;;;;;;;34.77;54.72;100459.13;4920579;28;66418;-36
2023/08/24 10:29:33;;;;;;;;;;;;;;;34.68;54.73;100478.66;4915793;28;70259;-34
2023/08/24 10:32:05;;;;;;;4.78;4.47;;;;;;;34.51;55.99;100426.13;4909740;28;66568;-36
2023/08/24 10:34:35;;;;;;;8.20;7.10;;;;;;;34.95;57.82;100480.56;4913013;28;70467;-36
2023/08/24 10:37:12;;;;;;;8.15;7.50;;;;;;;34.85;57.81;100491.34;4907428;28;66423;-37
2023/08/24 10:39:46;;;;;;;8.95;7.00;;;;;;;34.65;59.38;100486.53;4914406;28;70301;-36
2023/08/24 10:42:16;;;;;;;8.98;8.18;;;;;;;34.58;59.44;100494.91;4921404;28;66531;-36
2023/08/24 10:44:47;;;;;;;8.18;7.45;;;;;;;34.52;59.23;100493.16;4917964;28;70424;-36
2023/08/24 10:47:25;;;;;;;13.13;7.30;;;;;;;34.46;59.56;100499.59;4913522;28;67555;-37
2023/08/24 10:49:55;;;;;;;9.48;7.93;;;;;;;34.38;59.53;100497.34;4915751;28;69978;-37
2023/08/24 10:52:27;;;;;;;8.50;7.53;;;;;;;34.23;60.29;100512.41;4915738;28;66325;-36
2023/08/24 10:55:00;;;;;;;7.13;6.50;;;;;;;34.19;60.80;100522.16;4910379;28;70170;-37
2023/08/24 10:57:42;;;;;;;10.20;6.22;;;;;;;33.85;60.08;100449.78;4911773;28;66466;-36
2023/08/24 11:00:15;;;;;;;6.63;5.82;;;;;;;34.30;59.76;100527.72;4898923;28;71114;-37
2023/08/24 11:02:51;;;;;;;7.90;7.13;;;;;;;34.40;59.66;100533.31;4920636;28;66158;-38
2023/08/24 11:05:32;;;;;;;13.75;8.80;;;;;;;34.43;59.58;100535.53;4919652;28;70094;-37
2023/08/24 11:08:04;;;;;;;11.15;7.43;;;;;;;34.06;60.22;100478.97;4884637;28;65309;-38
2023/08/24 11:10:46;;;;;;;11.25;9.25;;;;;;;34.03;59.88;100490.31;4917346;28;68575;-39
2023/08/24 11:13:22;;;;;;;18.58;8.80;;;;;;;34.50;59.78;100555.22;4909152;28;65983;-39
2023/08/24 11:15:57;;;;;;;13.52;9.13;;;;;;;34.48;59.61;100546.47;4910733;28;70425;-37
2023/08/24 11:18:31;;;;;;;11.35;9.35;;;;;;;34.53;59.63;100548.47;4893391;28;65289;-38
2023/08/24 11:21:03;;;;;;;13.20;8.38;;;;;;;34.46;59.24;100548.63;4911189;28;69320;-37
2023/08/24 11:23:34;;;;;;;10.27;8.13;;;;;;;34.53;59.45;100560.16;4934922;28;66759;-37
2023/08/24 11:26:04;;;;;;;;;;;;;;;34.29;60.27;100558.75;4930434;28;69788;-37
2023/08/24 11:28:37;;;;;;;11.32;8.13;;;;;;;34.48;58.90;100558.19;4917021;28;66333;-37
2023/08/24 11:31:09;;;;;;;8.77;6.90;;;;;;;34.18;59.45;100509.59;4919206;28;70839;-37
2023/08/24 11:33:39;;;;;;;7.68;6.95;;;;;;;34.54;59.19;100572.69;4923963;28;66512;-37
2023/08/24 11:36:10;;;;;;;9.75;6.60;;;;;;;34.49;59.22;100564.47;4919103;28;70109;-36
2023/08/24 11:38:42;;;;;;;8.60;6.22;;;;;;;34.53;58.77;100576.50;4929287;28;65777;-36
2023/08/24 11:41:17;;;;;;;6.13;5.60;;;;;;;34.42;59.37;100570.09;4917157;28;69766;-36
2023/08/24 11:43:50;;;;;;;6.70;4.95;;;;;;;34.43;59.61;100582.63;4925288;28;66252;-36
2023/08/24 11:46:20;;;;;;;5.03;4.63;;;;;;;34.32;57.68;100580.84;4918175;28;70305;-37
2023/08/24 11:48:51;;;;;;;8.43;4.90;;;;;;;34.21;56.29;100585.34;4913692;28;65656;-35